Kezdőlap
METAR-TAF:

METAR-TAF

Repülőterek :

Kairó, Egyiptom

Kairói nemzetközi repülőtér

földrajzi szélesség: 30-08N, földrajzi hosszúság: 031-24E, magasság: 64 m

Jelenlegi meteorológiai megfigyelések

A jelentés 11 perccel ezelõtt készült, 10:00 UTC
Dél-délnyugati szél 17 kt
Hőmérséklet 18°C
Páratartalom 39%
Légköri nyomás 1012 hPa
Látótávolság: 5000 m
homok

METAR: HECA 221000Z 20017KT 5000 SA NSC 18/04 Q1012 TEMPO 4000

Idő: 12:11 (10:11 UTC)

Előrejelzés

A jelentés 5 órával és 11 perccel ezelõtt készült, 05:00 UTC
Az előrejelzés 22-én 06 óra UTC és 23-én 12 óra UTC között érvényes
Délnyugati szél 10 kt széllökések: 20 kt
Látótávolság: 6000 m
22-én 06 óra UTC és 22-én 15 óra UTC között ideiglenes
Látótávolság: 4000 m
homok

TAF: HECA 220500Z 2206/2312 22010G20KT 6000 NSC TEMPO 2206/2215 4000 SA

Meteorológiai megfigyelések és előrejelzések több, mint 4000 repülőtéren (METAR és TAF jelentéseket).

A térképen piros és sárga pontok jelzik az elérhető meteorológiai állomásokat.

Mozgassa az egeret a pont fölött, hogy megjelenjen az állomás neve.

Azután kattintson az időjárási megfigyelések és előrejelzések megtekintéséhez.

A térkép megváltoztatása: kattintson a fekete keresztel jelölt zöld gombra ráközelítéshez, a vonallal jelölt zöld gombra távolításhoz, vagy a zöld nyilakra a szomszédos térképek eléréséhez.


METAR-TAF: